Terminal Aerodrome Forecast
Issued by NWS Duluth, MN

Home | Current Version | Previous Version | Text Only | Print | Product List | Glossary On
Versions: 1 2 3 4 5 6 7 8 9 10 11 12 13 14 15 16 17
000
FTUS43 KDLH 181100
TAFDLH
TAF
KDLH 181134Z 1812/1912 VRB03KT P6SM SCT110
     FM181900 11008KT P6SM BKN100
     FM190900 10012KT 6SM -FZRASN OVC030 WS015/16045KT=

USA.gov is the U.S. government's official web portal to all federal, state and local government web resources and services.